Hlavní strana
METAR-TAF:

METAR-TAF

Letiště :

Buffalo Narrows, Manitoba, Kanada

zeměpisná šířka: 55-50N, zeměpisná délka: 108-27W, výška: 434 m

Aktuální stav počasí

Zpráva byla vytvořena před 43 minutami, v 03:00 UTC
Jihojihozápadní vítr 4 kt
Teplota -11°C
Vlhkost vzduchu 85%
Tlak 1004 hPa
Viditelnost: 24.1 km
Zataženo ve výšce 1400 ft
slabé sněžení

METAR: CYVT 210300Z 21004KT 15SM -SN OVC014 M11/M13 A2964 RMK ST8 SLP081

Čas: 21:43 (03:43 UTC)

Předpověď počasí

Zpráva byla vytvořena před 3 hodinami a 5 minutami, v 00:38 UTC
Předpověď platná od 21 v 01 UTC do 21 v 04 UTC
Jižní vítr 8 kt
Viditelnost: 10 km
Polojasno ve výšce 2000 ft
Zataženo ve výšce 4000 ft
Dočasný
od 21 v 01 UTC do 21 v 04 UTC
Viditelnost: 1.6 km
Zataženo ve výšce 2000 ft
slabé sněžení

TAF: CYVT 210038Z 2101/2104 17008KT P6SM SCT020 OVC040 TEMPO 2101/2104 1SM -SN OVC020 RMK NXT FCST WILL BE ISSUED AT 211345Z

Stav a předpovědi počasí z více než 4 000 letišť (zprávy METAR a TAF).

Červené a žluté tečky na mapě představují dostupné meteorologické stanice.

Když kurzor umístíte na tečku, zobrazí se název stanice.

Pak kliknutím zobrazíte stav a předpověď počasí.

Chcete-li změnit mapu, kliknutím na zelené tlačítko se znaménkem +mapu přiblížíte, kliknutím na zelené tlačítko se znaménkem – mapu oddálíte a kliknutím na zelené šipky přejdete na sousední mapy.


METAR-TAF: